createdAt,value
2022-08-03T00:01:48.882Z,92255.28
2022-08-03T00:04:15.413Z,92256.63
2022-08-03T00:06:41.999Z,92251.03
2022-08-03T00:09:08.942Z,92251.72
2022-08-03T00:11:35.696Z,92249.66
2022-08-03T00:14:03.542Z,92244.66
2022-08-03T00:16:30.108Z,92245.41
2022-08-03T00:18:56.644Z,92246.75
2022-08-03T00:21:23.365Z,92245.41
2022-08-03T00:23:52.114Z,92241.13
2022-08-03T00:26:20.602Z,92248.22
2022-08-03T00:28:47.507Z,92241.88
2022-08-03T00:31:14.367Z,92241.13
2022-08-03T00:33:59.205Z,92235.53
2022-08-03T00:36:27.632Z,92237.00
2022-08-03T00:38:54.540Z,92234.19
2022-08-03T00:41:21.115Z,92237.00
2022-08-03T00:43:47.856Z,92229.19
2022-08-03T00:46:18.983Z,92234.06
2022-08-03T00:48:47.324Z,92235.53
2022-08-03T00:51:14.043Z,92234.19
2022-08-03T00:53:41.264Z,92234.06
2022-08-03T00:56:07.871Z,92235.53
2022-08-03T00:58:34.667Z,92234.06
2022-08-03T01:01:01.286Z,92239.69
2022-08-03T01:03:27.877Z,92239.69
2022-08-03T01:06:19.048Z,92234.06
2022-08-03T01:09:23.251Z,92239.69
2022-08-03T01:12:14.478Z,92234.06
2022-08-03T01:15:10.351Z,92238.94
2022-08-03T01:17:51.511Z,92239.69
2022-08-03T01:20:21.008Z,92238.94
2022-08-03T01:23:10.138Z,92238.22
2022-08-03T01:26:03.487Z,92239.69
2022-08-03T01:28:42.066Z,92239.69
2022-08-03T01:31:11.721Z,92243.81
2022-08-03T01:33:46.967Z,92236.75
2022-08-03T01:36:16.418Z,92231.16
2022-08-03T01:38:51.155Z,92236.75
2022-08-03T01:41:22.703Z,92229.69
2022-08-03T01:44:28.174Z,92231.16
2022-08-03T01:46:40.515Z,92229.69
2022-08-03T01:49:15.258Z,92232.59
2022-08-03T01:51:58.503Z,92229.69
2022-08-03T01:54:31.220Z,92225.56
2022-08-03T01:56:59.642Z,92221.28
2022-08-03T01:59:29.013Z,92224.06
2022-08-03T02:02:15.941Z,92224.06
2022-08-03T02:04:47.011Z,92224.06
2022-08-03T02:07:16.291Z,92224.06
2022-08-03T02:09:46.927Z,92222.75
2022-08-03T02:12:14.533Z,92225.44
2022-08-03T02:14:43.355Z,92228.22
2022-08-03T02:17:11.150Z,92222.63
2022-08-03T02:19:38.817Z,92226.88
2022-08-03T02:22:09.518Z,92229.69
2022-08-03T02:24:36.145Z,92228.22
2022-08-03T02:27:05.880Z,92228.22
2022-08-03T02:29:39.946Z,92226.75
2022-08-03T02:32:12.476Z,92222.63
2022-08-03T02:34:40.960Z,92228.22
2022-08-03T02:37:10.375Z,92231.03
2022-08-03T02:39:39.801Z,92221.16
2022-08-03T02:42:09.618Z,92227.50
2022-08-03T02:44:40.547Z,92228.81
2022-08-03T02:47:10.912Z,92232.38
2022-08-03T02:49:50.991Z,92228.22
2022-08-03T02:52:21.589Z,92221.16
2022-08-03T02:54:51.280Z,92226.75
2022-08-03T02:57:20.996Z,92221.88
2022-08-03T02:59:48.175Z,92227.50
2022-08-03T03:02:17.235Z,92226.03
2022-08-03T03:05:52.490Z,92232.38
2022-08-03T03:07:34.689Z,92225.28
2022-08-03T03:10:16.990Z,92226.75
2022-08-03T03:12:45.470Z,92226.66
2022-08-03T03:15:12.344Z,92232.38
2022-08-03T03:17:39.461Z,92219.69
2022-08-03T03:20:07.604Z,92219.69
2022-08-03T03:22:35.123Z,92218.22
2022-08-03T03:25:02.517Z,92223.84
2022-08-03T03:27:29.859Z,92223.84
2022-08-03T03:29:57.854Z,92229.44
2022-08-03T03:32:26.322Z,92229.44
2022-08-03T03:34:54.727Z,92229.44
2022-08-03T03:37:21.579Z,92228.09
2022-08-03T03:39:48.177Z,92226.66
2022-08-03T03:42:15.000Z,92233.56
2022-08-03T03:44:41.700Z,92233.56
2022-08-03T03:47:08.386Z,92233.56
2022-08-03T03:49:36.399Z,92230.78
2022-08-03T03:52:03.226Z,92233.56
2022-08-03T03:54:43.596Z,92239.19
2022-08-03T03:57:12.997Z,92230.78
2022-08-03T03:59:44.023Z,92226.53
2022-08-03T04:02:12.110Z,92236.38
2022-08-03T04:04:57.601Z,92233.56
2022-08-03T04:07:43.509Z,92239.94
2022-08-03T04:10:40.982Z,92239.19
2022-08-03T04:13:10.738Z,92239.19
2022-08-03T04:15:39.751Z,92239.81
2022-08-03T04:18:09.346Z,92236.25
2022-08-03T04:20:38.765Z,92236.25
2022-08-03T04:23:13.558Z,92234.81
2022-08-03T04:25:43.561Z,92234.09
2022-08-03T04:28:29.546Z,92237.63
2022-08-03T04:30:59.870Z,92235.56
2022-08-03T04:33:30.361Z,92241.16
2022-08-03T04:36:02.775Z,92237.63
2022-08-03T04:38:32.958Z,92252.38
2022-08-03T04:41:00.679Z,92246.03
2022-08-03T04:43:28.724Z,92251.63
2022-08-03T04:45:56.575Z,92248.84
2022-08-03T04:48:23.211Z,92251.63
2022-08-03T04:50:49.929Z,92265.66
2022-08-03T04:53:16.713Z,92259.31
2022-08-03T04:55:43.427Z,92265.66
2022-08-03T04:58:09.979Z,92257.13
2022-08-03T05:00:36.515Z,92264.22
2022-08-03T05:03:03.063Z,92262.13
2022-08-03T05:05:48.699Z,92262.84
2022-08-03T05:08:16.203Z,92260.66
2022-08-03T05:10:47.707Z,92261.41
2022-08-03T05:13:14.591Z,92273.31
2022-08-03T05:15:43.012Z,92272.63
2022-08-03T05:18:13.954Z,92273.94
2022-08-03T05:20:41.414Z,92273.94
2022-08-03T05:23:08.085Z,92272.63
2022-08-03T05:25:34.700Z,92273.94
2022-08-03T05:28:01.428Z,92271.13
2022-08-03T05:30:33.201Z,92283.84
2022-08-03T05:33:01.641Z,92271.13
2022-08-03T05:35:56.123Z,92276.75
2022-08-03T05:38:23.704Z,92265.53
2022-08-03T05:40:57.192Z,92265.53
2022-08-03T05:43:41.744Z,92265.53
2022-08-03T05:46:12.165Z,92264.09
2022-08-03T05:48:39.475Z,92266.91
2022-08-03T05:51:07.730Z,92259.19
2022-08-03T05:53:34.623Z,92259.94
2022-08-03T05:56:13.101Z,92259.19
2022-08-03T05:58:41.882Z,92252.88
2022-08-03T06:01:08.507Z,92253.59
2022-08-03T06:03:35.080Z,92243.72
2022-08-03T06:06:01.638Z,92252.13
2022-08-03T06:08:28.374Z,92244.47
2022-08-03T06:10:54.965Z,92245.78
2022-08-03T06:13:22.049Z,92248.72
2022-08-03T06:15:48.720Z,92247.28
2022-08-03T06:18:15.251Z,92244.47
2022-08-03T06:20:41.795Z,92243.09
2022-08-03T06:23:08.340Z,92233.97
2022-08-03T06:25:43.148Z,92241.66
2022-08-03T06:28:18.975Z,92238.25
2022-08-03T06:30:50.451Z,92243.09
2022-08-03T06:33:17.125Z,92231.28
2022-08-03T06:35:44.691Z,92239.69
2022-08-03T06:38:13.008Z,92235.56
2022-08-03T06:40:42.594Z,92235.56
2022-08-03T06:43:12.758Z,92231.41
2022-08-03T06:45:39.842Z,92225.06
2022-08-03T06:48:08.394Z,92225.06
2022-08-03T06:50:36.357Z,92220.19
2022-08-03T06:53:04.455Z,92226.53
2022-08-03T06:55:32.504Z,92224.47
2022-08-03T06:57:59.854Z,92214.56
2022-08-03T07:00:30.939Z,92215.31
2022-08-03T07:02:58.466Z,92206.91
2022-08-03T07:05:25.419Z,92212.50
2022-08-03T07:07:56.617Z,92210.44
2022-08-03T07:10:23.346Z,92210.44
2022-08-03T07:12:56.149Z,92213.97
2022-08-03T07:15:38.386Z,92207.03
2022-08-03T07:18:10.284Z,92198.50
2022-08-03T07:20:36.822Z,92190.09
2022-08-03T07:23:03.725Z,92196.50
2022-08-03T07:25:30.286Z,92190.31
2022-08-03T07:27:56.859Z,92187.75
2022-08-03T07:30:24.964Z,92189.22
2022-08-03T07:32:51.546Z,92180.19
2022-08-03T07:35:24.836Z,92176.03
2022-08-03T07:37:54.492Z,92169.72
2022-08-03T07:40:21.424Z,92169.72
2022-08-03T07:42:48.028Z,92170.41
2022-08-03T07:45:18.793Z,92173.97
2022-08-03T07:47:46.164Z,92165.53
2022-08-03T07:50:20.483Z,92162.75
2022-08-03T07:52:50.327Z,92164.09
2022-08-03T07:55:19.516Z,92157.13
2022-08-03T07:57:46.934Z,92148.72
2022-08-03T08:00:19.292Z,92157.13
2022-08-03T08:02:46.343Z,92153.00
2022-08-03T08:05:13.073Z,92141.19
2022-08-03T08:07:41.262Z,92139.72
2022-08-03T08:10:10.170Z,92141.19
2022-08-03T08:12:37.778Z,92131.44
2022-08-03T08:15:05.875Z,92125.84
2022-08-03T08:17:42.235Z,92123.38
2022-08-03T08:20:09.915Z,92123.63
2022-08-03T08:22:36.432Z,92122.69
2022-08-03T08:25:04.434Z,92126.84
2022-08-03T08:28:31.372Z,92123.41
2022-08-03T08:30:19.664Z,92118.63
2022-08-03T08:32:47.213Z,92106.22
2022-08-03T08:35:14.143Z,92104.88
2022-08-03T08:37:41.534Z,92091.44
2022-08-03T08:40:09.398Z,92097.31
2022-08-03T08:42:57.595Z,92089.72
2022-08-03T08:45:25.274Z,92082.16
2022-08-03T08:47:55.676Z,92088.59
2022-08-03T08:50:27.675Z,92081.03
2022-08-03T08:52:56.414Z,92086.84
2022-08-03T08:55:23.955Z,92080.63
2022-08-03T08:57:56.924Z,92077.94
2022-08-03T09:00:23.479Z,92083.44
2022-08-03T09:02:51.259Z,92075.75
2022-08-03T09:05:22.513Z,92077.81
2022-08-03T09:07:58.644Z,92071.38
2022-08-03T09:10:25.192Z,92069.19
2022-08-03T09:12:52.652Z,92070.66
2022-08-03T09:15:25.243Z,92068.66
2022-08-03T09:17:54.926Z,92056.19
2022-08-03T09:20:23.177Z,92066.19
2022-08-03T09:23:01.605Z,92045.94
2022-08-03T09:25:30.340Z,92060.06
2022-08-03T09:28:52.488Z,92047.50
2022-08-03T09:31:01.263Z,92047.59
2022-08-03T09:33:36.033Z,92046.56
2022-08-03T09:36:02.938Z,92039.53
2022-08-03T09:38:29.443Z,92037.94
2022-08-03T09:41:00.360Z,92036.91
2022-08-03T09:43:27.947Z,92033.25
2022-08-03T09:46:04.018Z,92033.25
2022-08-03T09:48:31.935Z,92023.50
2022-08-03T09:51:13.593Z,92020.59
2022-08-03T09:53:57.201Z,92026.94
2022-08-03T09:56:44.910Z,92014.97
2022-08-03T09:59:13.080Z,92009.38
2022-08-03T10:01:41.910Z,92016.94
2022-08-03T10:04:17.130Z,92008.63
2022-08-03T10:06:45.556Z,92006.47
2022-08-03T10:09:14.982Z,92008.00
2022-08-03T10:11:43.408Z,92000.34
2022-08-03T10:14:18.700Z,92000.97
2022-08-03T10:16:46.984Z,91992.31
2022-08-03T10:19:15.166Z,91989.41
2022-08-03T10:21:56.055Z,91983.81
2022-08-03T10:24:27.331Z,91982.38
2022-08-03T10:27:03.199Z,91973.84
2022-08-03T10:29:31.648Z,91969.69
2022-08-03T10:31:59.460Z,91969.69
2022-08-03T10:34:29.048Z,91961.28
2022-08-03T10:36:59.102Z,91962.00
2022-08-03T10:39:29.287Z,91955.06
2022-08-03T10:41:58.839Z,91957.13
2022-08-03T10:44:32.650Z,91953.19
2022-08-03T10:46:59.852Z,91946.22
2022-08-03T10:49:33.851Z,91935.72
2022-08-03T10:52:01.101Z,91939.16
2022-08-03T10:54:35.323Z,91926.50
2022-08-03T10:57:27.772Z,91920.78
2022-08-03T10:59:57.897Z,91917.97
2022-08-03T11:03:04.333Z,91915.16
2022-08-03T11:05:33.699Z,91913.00
2022-08-03T11:08:37.808Z,91908.00
2022-08-03T11:11:19.633Z,91909.34
2022-08-03T11:14:03.465Z,91905.09
2022-08-03T11:16:32.550Z,91904.38
2022-08-03T11:19:01.280Z,91896.59
2022-08-03T11:21:51.796Z,91896.59
2022-08-03T11:24:36.662Z,91898.25
2022-08-03T11:27:18.794Z,91892.06
2022-08-03T11:30:11.650Z,91891.88
2022-08-03T11:32:38.364Z,91885.53
2022-08-03T11:35:09.315Z,91881.16
2022-08-03T11:37:36.929Z,91877.00
2022-08-03T11:40:03.912Z,91881.69
2022-08-03T11:42:33.404Z,91875.34
2022-08-03T11:45:00.866Z,91877.34
2022-08-03T11:47:29.583Z,91883.47
2022-08-03T11:49:59.191Z,91872.06
2022-08-03T11:52:28.726Z,91863.53
2022-08-03T11:54:57.120Z,91869.16
2022-08-03T11:59:01.745Z,91864.91
2022-08-03T12:00:32.295Z,91859.19
2022-08-03T12:03:04.829Z,91855.53
2022-08-03T12:05:38.753Z,91856.28
2022-08-03T12:08:07.274Z,91847.03
2022-08-03T12:10:34.468Z,91858.97
2022-08-03T12:13:02.292Z,91857.53
2022-08-03T12:15:35.924Z,91849.13
2022-08-03T12:18:04.584Z,91850.47
2022-08-03T12:20:35.418Z,91841.94
2022-08-03T12:23:05.069Z,91847.56
2022-08-03T12:25:39.686Z,91837.06
2022-08-03T12:28:37.145Z,91837.69
2022-08-03T12:31:07.478Z,91839.03
2022-08-03T12:34:02.902Z,91832.81
2022-08-03T12:36:33.223Z,91827.81
2022-08-03T12:39:06.565Z,91826.38
2022-08-03T12:41:35.539Z,91833.44
2022-08-03T12:44:07.115Z,91832.00
2022-08-03T12:46:47.011Z,91830.56
2022-08-03T12:49:17.123Z,91826.38
2022-08-03T12:51:43.688Z,91823.56
2022-08-03T12:54:17.334Z,91818.81
2022-08-03T12:57:06.844Z,91822.63
2022-08-03T12:59:41.237Z,91824.28
2022-08-03T13:02:28.706Z,91817.41
2022-08-03T13:04:55.675Z,91823.22
2022-08-03T13:07:23.225Z,91814.91
2022-08-03T13:09:57.395Z,91819.16
2022-08-03T13:12:26.183Z,91816.34
2022-08-03T13:14:56.229Z,91807.31
2022-08-03T13:17:23.478Z,91810.94
2022-08-03T13:19:51.356Z,91808.22
2022-08-03T13:22:20.348Z,91806.88
2022-08-03T13:24:49.018Z,91805.44
2022-08-03T13:28:01.990Z,91802.63
2022-08-03T13:30:03.870Z,91812.41
2022-08-03T13:32:30.812Z,91799.72
2022-08-03T13:34:57.380Z,91795.56
2022-08-03T13:37:24.139Z,91792.66
2022-08-03T13:39:58.176Z,91799.72
2022-08-03T13:42:29.503Z,91799.72
2022-08-03T13:44:56.200Z,91799.72
2022-08-03T13:47:23.033Z,91794.09
2022-08-03T13:49:59.510Z,91787.06
2022-08-03T13:52:32.592Z,91787.75
2022-08-03T13:54:59.891Z,91788.50
2022-08-03T13:58:05.418Z,91785.69
2022-08-03T14:00:16.664Z,91784.34
2022-08-03T14:02:59.952Z,91784.34
2022-08-03T14:05:32.300Z,91781.63
2022-08-03T14:08:04.767Z,91783.72
2022-08-03T14:10:32.853Z,91786.53
2022-08-03T14:13:00.453Z,91780.19
2022-08-03T14:15:28.527Z,91785.78
2022-08-03T14:17:55.563Z,91774.56
2022-08-03T14:20:37.994Z,91768.97
2022-08-03T14:23:12.739Z,91776.00
2022-08-03T14:25:44.399Z,91774.66
2022-08-03T14:28:18.401Z,91765.53
2022-08-03T14:30:44.955Z,91773.31
2022-08-03T14:33:11.473Z,91771.88
2022-08-03T14:35:38.101Z,91764.78
2022-08-03T14:38:04.615Z,91770.50
2022-08-03T14:40:31.126Z,91767.69
2022-08-03T14:42:57.704Z,91766.25
2022-08-03T14:45:24.515Z,91767.69
2022-08-03T14:50:29.015Z,91762.09
2022-08-03T14:50:44.195Z,91761.38
2022-08-03T14:53:12.198Z,91759.28
2022-08-03T14:55:50.353Z,91765.00
2022-08-03T14:58:20.784Z,91765.00
2022-08-03T15:00:49.208Z,91759.38
2022-08-03T15:03:16.928Z,91760.13
2022-08-03T15:05:44.132Z,91768.63
2022-08-03T15:08:10.664Z,91763.72
2022-08-03T15:10:40.466Z,91760.91
2022-08-03T15:13:12.717Z,91758.09
2022-08-03T15:15:39.826Z,91765.91
2022-08-03T15:18:06.853Z,91759.56
2022-08-03T15:20:43.676Z,91748.34
2022-08-03T15:23:10.808Z,91753.97
2022-08-03T15:26:03.556Z,91744.09
2022-08-03T15:28:23.875Z,91749.78
2022-08-03T15:30:52.408Z,91749.09
2022-08-03T15:33:19.283Z,91747.00
2022-08-03T15:35:47.367Z,91742.84
2022-08-03T15:38:14.002Z,91740.03
2022-08-03T15:40:40.547Z,91741.47
2022-08-03T15:43:07.363Z,91750.53
2022-08-03T15:45:36.135Z,91749.78
2022-08-03T15:48:04.975Z,91742.75
2022-08-03T15:50:31.666Z,91748.34
2022-08-03T15:52:58.234Z,91748.88
2022-08-03T15:55:24.788Z,91750.97
2022-08-03T15:59:04.270Z,91752.31
2022-08-03T16:00:38.492Z,91751.59
2022-08-03T16:03:04.961Z,91756.47
2022-08-03T16:05:31.861Z,91750.88
2022-08-03T16:08:03.658Z,91744.53
2022-08-03T16:10:32.051Z,91750.16
2022-08-03T16:12:59.957Z,91750.88
2022-08-03T16:15:26.935Z,91744.53
2022-08-03T16:17:53.489Z,91748.06
2022-08-03T16:20:30.804Z,91755.03
2022-08-03T16:23:05.517Z,91750.88
2022-08-03T16:25:39.228Z,91748.06
2022-08-03T16:28:07.820Z,91755.78
2022-08-03T16:30:39.985Z,91747.34
2022-08-03T16:33:06.574Z,91747.97
2022-08-03T16:35:33.296Z,91747.25
2022-08-03T16:38:00.270Z,91754.31
2022-08-03T16:40:27.111Z,91751.50
2022-08-03T16:42:53.633Z,91755.03
2022-08-03T16:45:20.316Z,91750.75
2022-08-03T16:47:46.848Z,91747.97
2022-08-03T16:50:19.757Z,91752.88
2022-08-03T16:52:48.285Z,91757.84
2022-08-03T16:55:18.400Z,91763.44
2022-08-03T16:58:03.092Z,91757.84
2022-08-03T17:00:33.000Z,91766.25
2022-08-03T17:03:04.659Z,91776.75
2022-08-03T17:05:47.634Z,91771.13
2022-08-03T17:08:14.759Z,91776.00
2022-08-03T17:10:45.175Z,91774.56
2022-08-03T17:13:20.767Z,91781.63
2022-08-03T17:15:58.240Z,91780.19
2022-08-03T17:18:34.139Z,91785.69
2022-08-03T17:21:06.622Z,91782.88
2022-08-03T17:23:53.398Z,91784.34
2022-08-03T17:26:22.537Z,91794.31
2022-08-03T17:29:12.888Z,91804.06
2022-08-03T17:31:48.944Z,91807.69
2022-08-03T17:34:17.042Z,91808.44
2022-08-03T17:39:57.265Z,91809.97
2022-08-03T17:42:31.367Z,91819.84
2022-08-03T17:45:02.434Z,91825.53
2022-08-03T17:47:41.197Z,91828.44
2022-08-03T17:50:25.202Z,91836.97
2022-08-03T17:53:07.377Z,91836.97
2022-08-03T17:55:55.680Z,91835.63
2022-08-03T17:58:52.831Z,91840.59
2022-08-03T18:02:02.107Z,91860.97
2022-08-03T18:04:34.122Z,91861.69
2022-08-03T18:07:11.858Z,91861.69
2022-08-03T18:10:04.571Z,91861.69
2022-08-03T18:12:40.191Z,91868.78
2022-08-03T18:15:13.260Z,91872.91
2022-08-03T18:17:55.787Z,91868.03
2022-08-03T18:20:34.927Z,91884.88
2022-08-03T18:23:08.732Z,91875.09
2022-08-03T18:25:45.533Z,91873.75
2022-08-03T18:28:27.318Z,91877.91
2022-08-03T18:30:55.764Z,91889.13
2022-08-03T18:34:17.078Z,91890.50
2022-08-03T18:36:21.658Z,91893.41
2022-08-03T18:38:56.556Z,91904.63
2022-08-03T18:44:37.642Z,91906.69
2022-08-03T18:47:07.311Z,91903.16
2022-08-03T18:49:57.580Z,91908.06
2022-08-03T18:52:53.185Z,91917.19
2022-08-03T18:56:01.300Z,91917.19
2022-08-03T18:58:52.257Z,91911.56
2022-08-03T19:02:00.208Z,91922.09
2022-08-03T19:04:46.457Z,91924.88
2022-08-03T19:07:22.260Z,91921.34
2022-08-03T19:09:57.318Z,91941.00
2022-08-03T19:12:32.522Z,91936.81
2022-08-03T19:15:10.344Z,91946.59
2022-08-03T19:17:50.170Z,91945.88
2022-08-03T19:20:25.463Z,91952.94
2022-08-03T19:22:53.673Z,91949.41
2022-08-03T19:28:08.738Z,91959.28
2022-08-03T19:30:39.123Z,91964.88
2022-08-03T19:33:09.131Z,91961.97
2022-08-03T19:35:51.720Z,91974.66
2022-08-03T19:38:28.256Z,91962.06
2022-08-03T19:44:04.338Z,91974.66
2022-08-03T19:46:33.995Z,91973.19
2022-08-03T19:49:10.615Z,91971.88
2022-08-03T19:52:02.214Z,91981.72
2022-08-03T19:54:45.658Z,91985.88
2022-08-03T19:57:23.540Z,91985.88
2022-08-03T19:59:52.527Z,91990.03
2022-08-03T20:02:26.732Z,91992.84
2022-08-03T20:04:57.119Z,91990.03
2022-08-03T20:07:25.257Z,91995.66
2022-08-03T20:09:54.601Z,91998.38
2022-08-03T20:12:26.477Z,91998.38
2022-08-03T20:14:55.754Z,92001.88
2022-08-03T20:17:22.944Z,92009.69
2022-08-03T20:20:09.584Z,92011.78
2022-08-03T20:22:40.082Z,92009.59
2022-08-03T20:25:08.385Z,92016.66
2022-08-03T20:28:06.751Z,92020.81
2022-08-03T20:30:34.011Z,92020.81
2022-08-03T20:33:00.944Z,92021.75
2022-08-03T20:35:28.751Z,92015.28
2022-08-03T20:37:55.432Z,92016.53
2022-08-03T20:40:23.206Z,92019.25
2022-08-03T20:42:55.184Z,92027.66
2022-08-03T20:46:00.648Z,92027.66
2022-08-03T20:48:10.163Z,92032.56
2022-08-03T20:50:38.775Z,92031.94
2022-08-03T20:53:07.231Z,92030.56
2022-08-03T20:56:01.332Z,92038.19
2022-08-03T20:58:23.704Z,92031.84
2022-08-03T21:03:41.092Z,92036.72
2022-08-03T21:06:27.728Z,92040.13
2022-08-03T21:09:03.977Z,92041.59
2022-08-03T21:11:41.479Z,92048.66
2022-08-03T21:12:58.870Z,91897.53
2022-08-03T21:13:07.896Z,92038.78
2022-08-03T21:13:08.246Z,91965.50
2022-08-03T21:13:09.434Z,91960.63
2022-08-03T21:14:38.774Z,92041.59
2022-08-03T21:17:14.080Z,92045.84
2022-08-03T21:19:51.755Z,92050.09
2022-08-03T21:22:22.433Z,92048.66
2022-08-03T21:24:54.100Z,92052.81
2022-08-03T21:27:24.609Z,92048.78
2022-08-03T21:29:53.425Z,92053.53
2022-08-03T21:32:32.633Z,92052.81
2022-08-03T21:35:00.097Z,92052.81
2022-08-03T21:37:28.074Z,92054.06
2022-08-03T21:39:55.965Z,92060.19
2022-08-03T21:42:25.855Z,92065.06
2022-08-03T21:44:53.327Z,92065.06
2022-08-03T21:47:22.706Z,92065.06
2022-08-03T21:50:07.567Z,92063.00
2022-08-03T21:52:40.959Z,92067.06
2022-08-03T21:55:08.544Z,92072.03
2022-08-03T21:57:50.164Z,92068.38
2022-08-03T22:00:19.057Z,92077.53
2022-08-03T22:02:54.607Z,92076.09
2022-08-03T22:05:42.467Z,92084.50
2022-08-03T22:08:09.984Z,92086.56
2022-08-03T22:10:36.988Z,92081.69
2022-08-03T22:13:03.674Z,92085.84
2022-08-03T22:15:31.010Z,92090.00
2022-08-03T22:17:59.091Z,92090.00
2022-08-03T22:20:26.029Z,92094.16
2022-08-03T22:22:55.973Z,92098.31
2022-08-03T22:25:30.525Z,92095.50
2022-08-03T22:28:00.083Z,92098.31
2022-08-03T22:30:26.859Z,92096.84
2022-08-03T22:32:54.857Z,92096.84
2022-08-03T22:35:23.931Z,92101.00
2022-08-03T22:37:54.010Z,92106.63
2022-08-03T22:40:20.786Z,92107.34
2022-08-03T22:42:50.496Z,92106.63
2022-08-03T22:45:45.095Z,92111.50
2022-08-03T22:48:08.532Z,92105.19
2022-08-03T22:50:35.526Z,92115.03
2022-08-03T22:53:02.704Z,92116.41
2022-08-03T22:55:30.431Z,92113.59
2022-08-03T22:57:56.982Z,92122.00
2022-08-03T23:00:24.162Z,92120.53
2022-08-03T23:02:51.042Z,92114.91
2022-08-03T23:06:02.022Z,92118.47
2022-08-03T23:08:13.953Z,92123.22
2022-08-03T23:10:46.738Z,92123.97
2022-08-03T23:13:15.663Z,92126.03
2022-08-03T23:15:45.650Z,92128.22
2022-08-03T23:18:12.451Z,92133.72
2022-08-03T23:20:40.728Z,92131.53
2022-08-03T23:23:11.542Z,92137.13
2022-08-03T23:25:41.549Z,92132.25
2022-08-03T23:28:09.367Z,92137.13
2022-08-03T23:30:37.634Z,92135.69
2022-08-03T23:33:04.575Z,92134.97
2022-08-03T23:36:29.006Z,92137.03
2022-08-03T23:38:36.797Z,92138.50
2022-08-03T23:41:04.875Z,92134.22
2022-08-03T23:43:52.077Z,92139.84
2022-08-03T23:46:25.704Z,92140.56
2022-08-03T23:48:56.376Z,92146.91
2022-08-03T23:51:52.313Z,92144.72
2022-08-03T23:54:31.510Z,92146.19
2022-08-03T23:57:18.600Z,92143.38
